Time;durP1;ratioP1;P1;durP2;ratioP2;P2;SDS_P1;SDS_P2;PMS_P1;PMS_P2;Temp;Humidity;BMP_temperature;BMP_pressure;BME280_temperature;BME280_humidity;BME280_pressure;Samples;Min_cycle;Max_cycle;Signal;HPM_P1;HPM_P2
2022/03/20 00:00:13;;;;;;;10.10;5.35;;;4.50;99.90;;;;;;4991754;28;20110;-85
2022/03/20 00:02:41;;;;;;;10.02;6.10;;;4.40;99.90;;;;;;4998668;28;20465;-85
2022/03/20 00:05:07;;;;;;;8.18;5.55;;;4.40;99.90;;;;;;4986964;28;20047;-85
2022/03/20 00:07:34;;;;;;;10.52;5.90;;;4.30;99.90;;;;;;4973110;28;20429;-86
2022/03/20 00:10:06;;;;;;;9.68;5.68;;;5.30;99.90;;;;;;4975084;28;20038;-86
2022/03/20 00:12:32;;;;;;;8.65;5.68;;;4.30;99.90;;;;;;4967789;28;20125;-86
2022/03/20 00:14:58;;;;;;;10.60;5.82;;;4.40;99.90;;;;;;4992395;28;20078;-86
2022/03/20 00:17:24;;;;;;;12.75;6.40;;;4.20;99.90;;;;;;4975067;28;20039;-86
2022/03/20 00:19:50;;;;;;;11.93;6.43;;;4.20;99.90;;;;;;4973691;28;20035;-85
2022/03/20 00:22:16;;;;;;;12.15;6.00;;;4.10;99.90;;;;;;5006524;28;20035;-86
2022/03/20 00:24:44;;;;;;;14.52;6.30;;;4.10;99.90;;;;;;4976012;28;20592;-87
2022/03/20 00:27:12;;;;;;;8.77;6.03;;;4.00;99.90;;;;;;4974232;28;20146;-88
2022/03/20 00:29:38;;;;;;;10.05;5.78;;;5.00;99.90;;;;;;4988285;28;20042;-88
2022/03/20 00:32:06;;;;;;;15.50;6.82;;;3.90;99.90;;;;;;4973791;28;20047;-87
2022/03/20 00:34:32;;;;;;;11.80;5.80;;;3.80;99.90;;;;;;4972448;28;20049;-87
2022/03/20 00:36:57;;;;;;;13.07;5.97;;;3.80;99.90;;;;;;4991148;28;20042;-87
2022/03/20 00:39:23;;;;;;;8.60;5.57;;;3.70;99.90;;;;;;4984614;28;20193;-87
2022/03/20 00:41:49;;;;;;;11.93;6.30;;;4.00;99.90;;;;;;4988876;28;20169;-86
2022/03/20 00:44:15;;;;;;;13.25;6.70;;;3.70;99.90;;;;;;4990624;28;20120;-86
2022/03/20 00:46:41;;;;;;;9.85;6.63;;;3.70;99.90;;;;;;4956387;28;20085;-86
2022/03/20 00:49:06;;;;;;;12.20;6.72;;;3.70;99.90;;;;;;4994203;28;20116;-85
2022/03/20 00:51:33;;;;;;;14.70;6.35;;;3.60;99.90;;;;;;4983663;28;20049;-85
2022/03/20 00:53:59;;;;;;;12.40;6.35;;;4.60;99.90;;;;;;4993821;28;20044;-85
2022/03/20 00:56:25;;;;;;;12.25;6.47;;;4.80;99.90;;;;;;5006191;28;20076;-85
2022/03/20 00:58:51;;;;;;;12.60;6.78;;;4.70;99.90;;;;;;4980205;28;20038;-87
2022/03/20 01:01:17;;;;;;;12.77;6.35;;;4.70;99.90;;;;;;4995586;28;20034;-87
2022/03/20 01:03:43;;;;;;;14.55;6.85;;;3.50;99.90;;;;;;4984905;28;20120;-87
2022/03/20 01:06:10;;;;;;;11.18;6.40;;;3.70;99.90;;;;;;4978283;28;20037;-87
2022/03/20 01:08:39;;;;;;;13.40;6.72;;;3.40;99.90;;;;;;4993249;28;20531;-87
2022/03/20 01:11:07;;;;;;;11.38;6.68;;;3.40;99.90;;;;;;4993781;28;20041;-87
2022/03/20 01:13:34;;;;;;;12.88;6.65;;;3.50;99.90;;;;;;4995060;28;20502;-87
2022/03/20 01:16:00;;;;;;;12.57;7.03;;;3.40;99.90;;;;;;4993841;28;20096;-85
2022/03/20 01:18:26;;;;;;;14.45;6.32;;;4.20;99.90;;;;;;4978132;28;20034;-86
2022/03/20 01:20:55;;;;;;;14.07;6.10;;;3.40;99.90;;;;;;4977694;28;20037;-86
2022/03/20 01:23:21;;;;;;;12.10;6.57;;;3.30;99.90;;;;;;5010534;28;20400;-85
2022/03/20 01:25:48;;;;;;;11.75;6.38;;;4.00;99.90;;;;;;4961311;28;20042;-86
2022/03/20 01:28:15;;;;;;;11.63;6.30;;;3.90;99.90;;;;;;5010738;28;20056;-86
2022/03/20 01:30:40;;;;;;;11.85;6.78;;;3.80;99.90;;;;;;4991472;28;20069;-86
2022/03/20 01:33:06;;;;;;;13.03;6.77;;;3.30;99.90;;;;;;4975058;28;20085;-85
2022/03/20 01:35:32;;;;;;;13.07;6.93;;;3.20;99.90;;;;;;4995465;28;20042;-85
2022/03/20 01:37:58;;;;;;;11.52;6.97;;;3.20;99.90;;;;;;4992786;28;20042;-85
2022/03/20 01:40:25;;;;;;;12.27;6.67;;;3.20;99.90;;;;;;4993257;28;20056;-86
2022/03/20 01:42:51;;;;;;;14.57;7.10;;;3.20;99.90;;;;;;4977417;28;20115;-85
2022/03/20 01:45:20;;;;;;;12.00;7.00;;;3.20;99.90;;;;;;4991505;28;20034;-84
2022/03/20 01:47:49;;;;;;;12.27;7.13;;;3.30;99.90;;;;;;4974937;28;20072;-85
2022/03/20 01:50:20;;;;;;;13.68;7.45;;;3.30;99.90;;;;;;4960146;28;20042;-88
2022/03/20 01:52:47;;;;;;;14.30;6.78;;;3.30;99.90;;;;;;4977848;28;20073;-88
2022/03/20 01:55:15;;;;;;;14.10;7.57;;;3.30;99.90;;;;;;4989791;28;20137;-88
2022/03/20 01:57:44;;;;;;;13.73;7.85;;;3.30;99.90;;;;;;4975274;28;20092;-88
2022/03/20 02:00:11;;;;;;;14.07;7.13;;;4.30;99.90;;;;;;4991323;28;20038;-88
2022/03/20 02:02:37;;;;;;;12.90;7.10;;;3.30;99.90;;;;;;5008594;28;20198;-88
2022/03/20 02:05:05;;;;;;;13.82;7.20;;;4.20;99.90;;;;;;4994428;28;20046;-86
2022/03/20 02:07:34;;;;;;;14.23;7.30;;;3.20;99.90;;;;;;4976838;28;20087;-85
2022/03/20 02:10:01;;;;;;;17.40;7.37;;;3.10;99.90;;;;;;4991236;28;20122;-85
2022/03/20 02:12:28;;;;;;;12.07;7.30;;;3.80;99.90;;;;;;4991163;28;20111;-85
2022/03/20 02:14:56;;;;;;;15.10;7.83;;;4.00;99.90;;;;;;4992552;28;20135;-86
2022/03/20 02:17:22;;;;;;;13.95;7.72;;;3.80;99.90;;;;;;4991849;28;20049;-85
2022/03/20 02:19:47;;;;;;;14.57;8.37;;;2.90;99.90;;;;;;4977420;28;20030;-85
2022/03/20 02:22:13;;;;;;;16.03;8.00;;;2.90;99.90;;;;;;4978051;28;20042;-86
2022/03/20 02:24:42;;;;;;;15.15;7.78;;;2.90;99.90;;;;;;4978379;28;20070;-86
2022/03/20 02:27:17;;;;;;;14.87;8.17;;;2.90;99.90;;;;;;4993995;28;20046;-86
2022/03/20 02:29:54;;;;;;;14.20;8.20;;;2.90;99.90;;;;;;4974328;28;20077;-86
2022/03/20 02:32:23;;;;;;;13.87;7.97;;;2.80;99.90;;;;;;5009169;28;20044;-86
2022/03/20 02:34:50;;;;;;;15.18;8.00;;;2.70;99.90;;;;;;4994136;28;20038;-86
2022/03/20 02:37:22;;;;;;;15.67;8.20;;;2.70;99.90;;;;;;4979706;28;20112;-86
2022/03/20 02:39:49;;;;;;;12.27;7.67;;;3.30;99.90;;;;;;4976873;28;22010;-86
2022/03/20 02:42:16;;;;;;;16.20;8.23;;;2.70;99.90;;;;;;4967373;28;20045;-86
2022/03/20 02:44:53;;;;;;;16.40;7.83;;;3.00;99.90;;;;;;4977076;28;20111;-85
2022/03/20 02:47:23;;;;;;;17.97;8.50;;;2.60;99.90;;;;;;4989384;28;20054;-86
2022/03/20 02:49:55;;;;;;;12.73;7.80;;;2.60;99.90;;;;;;4973812;28;20491;-86
2022/03/20 02:52:28;;;;;;;13.40;8.27;;;2.50;99.90;;;;;;4989484;28;20389;-86
2022/03/20 02:55:00;;;;;;;14.93;8.67;;;2.50;99.90;;;;;;4987819;28;22066;-85
2022/03/20 02:57:27;;;;;;;15.80;8.47;;;3.30;99.90;;;;;;4969342;28;20125;-85
2022/03/20 02:59:53;;;;;;;14.73;8.43;;;2.50;99.90;;;;;;4986789;28;20038;-85
2022/03/20 03:02:19;;;;;;;12.60;7.70;;;3.70;99.90;;;;;;4954150;28;20034;-85
2022/03/20 03:04:44;;;;;;;15.27;8.70;;;2.50;99.90;;;;;;4987717;28;20034;-85
2022/03/20 03:07:10;;;;;;;15.27;8.68;;;2.50;99.90;;;;;;4989074;28;20204;-85
2022/03/20 03:12:21;;;;;;;16.37;8.63;;;2.40;99.90;;;;;;4992588;28;20050;-88
2022/03/20 03:17:31;;;;;;;17.37;9.63;;;2.40;99.90;;;;;;4990731;28;20053;-87
2022/03/20 03:19:57;;;;;;;15.70;8.77;;;2.40;99.90;;;;;;4974586;28;20043;-87
2022/03/20 03:22:26;;;;;;;16.17;9.20;;;2.30;99.90;;;;;;4977372;28;20049;-87
2022/03/20 03:24:55;;;;;;;17.43;9.47;;;2.30;99.90;;;;;;4994321;28;20054;-87
2022/03/20 03:27:21;;;;;;;15.20;9.37;;;2.30;99.90;;;;;;4993589;28;20038;-87
2022/03/20 03:29:47;;;;;;;18.63;9.50;;;2.20;99.90;;;;;;4992374;28;20040;-85
2022/03/20 03:32:12;;;;;;;17.73;10.23;;;2.20;99.90;;;;;;4960524;28;20049;-84
2022/03/20 03:37:22;;;;;;;17.57;9.57;;;3.30;99.90;;;;;;4993880;28;20058;-84
2022/03/20 03:39:48;;;;;;;18.10;9.97;;;2.20;99.90;;;;;;4992067;28;20128;-84
2022/03/20 03:42:14;;;;;;;20.43;10.80;;;2.20;99.90;;;;;;4991025;28;20108;-84
2022/03/20 03:44:40;;;;;;;17.93;9.70;;;2.20;99.90;;;;;;4976679;28;20042;-88
2022/03/20 03:47:06;;;;;;;19.00;9.67;;;3.30;99.90;;;;;;4977477;28;20084;-89
2022/03/20 03:49:35;;;;;;;20.57;10.97;;;2.20;99.90;;;;;;4995094;28;20038;-88
2022/03/20 03:52:02;;;;;;;16.80;10.53;;;2.70;99.90;;;;;;4980846;28;20450;-88
2022/03/20 03:54:29;;;;;;;19.83;11.00;;;2.20;99.90;;;;;;4977087;28;20070;-88
2022/03/20 03:56:55;;;;;;;17.43;10.60;;;2.20;99.90;;;;;;4994985;28;20045;-88
2022/03/20 03:59:20;;;;;;;21.07;10.97;;;2.10;99.90;;;;;;4979812;28;20034;-89
2022/03/20 04:01:47;;;;;;;20.60;10.73;;;2.30;99.90;;;;;;4978848;28;20034;-87
2022/03/20 04:04:12;;;;;;;18.40;10.13;;;2.00;99.90;;;;;;5005144;28;20065;-87
2022/03/20 04:06:38;;;;;;;20.30;11.03;;;2.00;99.90;;;;;;4996103;28;20084;-87
2022/03/20 04:09:05;;;;;;;21.13;10.70;;;2.00;99.90;;;;;;4990941;28;20042;-87
2022/03/20 04:11:32;;;;;;;20.07;11.13;;;2.00;99.90;;;;;;4974575;28;20046;-87
2022/03/20 04:13:58;;;;;;;19.60;11.40;;;1.90;99.90;;;;;;4993881;28;20077;-87
2022/03/20 04:16:24;;;;;;;20.23;11.30;;;1.90;99.90;;;;;;4996511;28;20045;-87
2022/03/20 04:18:50;;;;;;;22.57;11.77;;;2.00;99.90;;;;;;4992971;28;20488;-85
2022/03/20 04:21:17;;;;;;;21.77;11.73;;;;;;;;;;4994701;28;20392;-85
2022/03/20 04:23:44;;;;;;;20.70;11.37;;;2.30;99.90;;;;;;4995166;28;20034;-85
2022/03/20 04:26:11;;;;;;;20.83;11.17;;;1.90;99.90;;;;;;4994661;28;20401;-85
2022/03/20 04:28:36;;;;;;;22.00;11.93;;;2.40;99.90;;;;;;4977024;28;20503;-85
2022/03/20 04:31:02;;;;;;;22.00;11.37;;;2.40;99.90;;;;;;4993446;28;20041;-85
2022/03/20 04:33:31;;;;;;;19.83;11.80;;;1.90;99.90;;;;;;4994122;28;20053;-85
2022/03/20 04:35:57;;;;;;;20.80;11.43;;;1.90;99.90;;;;;;4978533;28;20049;-88
2022/03/20 04:38:23;;;;;;;19.43;11.50;;;1.90;99.90;;;;;;4978420;28;20125;-87
2022/03/20 04:40:50;;;;;;;20.13;10.77;;;1.90;99.90;;;;;;4977621;28;20033;-88
2022/03/20 04:43:17;;;;;;;20.73;11.10;;;1.80;99.90;;;;;;5007741;28;20034;-88
2022/03/20 04:45:44;;;;;;;17.30;11.37;;;1.80;99.90;;;;;;4990557;28;20065;-88
2022/03/20 04:59:06;;;;;;;25.97;12.80;;;1.70;99.90;;;;;;5008270;28;20435;-86
2022/03/20 05:01:31;;;;;;;23.83;11.77;;;2.40;99.90;;;;;;4963407;28;20042;-86
2022/03/20 05:03:58;;;;;;;22.40;12.33;;;1.70;99.90;;;;;;4977646;28;20136;-86
2022/03/20 05:06:24;;;;;;;20.10;12.43;;;2.00;99.90;;;;;;5010437;28;20104;-86
2022/03/20 05:08:49;;;;;;;21.40;12.43;;;1.60;99.90;;;;;;4995555;28;20038;-87
2022/03/20 05:14:00;;;;;;;22.87;12.97;;;1.60;99.90;;;;;;4992091;28;20116;-87
2022/03/20 05:16:26;;;;;;;21.00;12.40;;;1.60;99.90;;;;;;4978332;28;20365;-87
2022/03/20 05:18:51;;;;;;;24.40;12.90;;;1.60;99.90;;;;;;4978680;28;20040;-87
2022/03/20 05:21:17;;;;;;;24.23;13.13;;;2.50;99.90;;;;;;4994673;28;20042;-87
2022/03/20 05:23:43;;;;;;;21.83;12.77;;;1.50;99.90;;;;;;4993789;28;20073;-87
2022/03/20 05:26:08;;;;;;;22.77;13.07;;;1.50;99.90;;;;;;4970775;28;20432;-85
2022/03/20 05:28:34;;;;;;;20.70;12.90;;;1.50;99.90;;;;;;4977733;28;20116;-85
2022/03/20 05:31:00;;;;;;;21.33;12.53;;;3.20;99.90;;;;;;4995571;28;20526;-85
2022/03/20 05:33:26;;;;;;;20.60;12.97;;;1.40;99.90;;;;;;4993716;28;20038;-84
2022/03/20 05:35:52;;;;;;;23.67;12.50;;;1.60;99.90;;;;;;4963073;28;20037;-85
2022/03/20 05:38:18;;;;;;;22.43;13.60;;;1.50;99.90;;;;;;4996981;28;20145;-85
2022/03/20 05:40:44;;;;;;;23.40;13.13;;;1.50;99.90;;;;;;4994665;28;20100;-84
2022/03/20 05:43:10;;;;;;;23.03;12.93;;;1.50;99.90;;;;;;4978831;28;20045;-88
2022/03/20 05:45:43;;;;;;;22.97;13.67;;;1.40;99.90;;;;;;4959806;28;20038;-88
2022/03/20 05:48:08;;;;;;;21.70;13.73;;;1.40;99.90;;;;;;4973616;28;20097;-89
2022/03/20 05:50:35;;;;;;;21.53;12.63;;;1.40;99.90;;;;;;4973624;28;20046;-88
2022/03/20 05:53:00;;;;;;;23.40;13.17;;;1.50;99.90;;;;;;4973776;28;20178;-88
2022/03/20 05:58:21;;;;;;;22.23;12.80;;;1.50;99.90;;;;;;4942357;28;20043;-88
2022/03/20 06:00:47;;;;;;;21.93;13.47;;;1.50;99.90;;;;;;4959376;28;20499;-89
2022/03/20 06:03:12;;;;;;;24.40;13.43;;;1.50;99.90;;;;;;4957196;28;20124;-89
2022/03/20 06:05:39;;;;;;;23.50;13.50;;;1.60;99.90;;;;;;4974091;28;20050;-89
2022/03/20 06:08:06;;;;;;;26.67;14.30;;;2.20;99.90;;;;;;4975372;28;20042;-89
2022/03/20 06:10:32;;;;;;;21.97;13.00;;;2.60;99.90;;;;;;4989321;28;20038;-88
2022/03/20 06:12:59;;;;;;;22.87;13.90;;;1.70;99.90;;;;;;4975118;28;20038;-89
2022/03/20 06:15:25;;;;;;;24.02;13.88;;;1.80;99.90;;;;;;4973927;28;20105;-84
2022/03/20 06:17:50;;;;;;;24.23;13.53;;;1.80;99.90;;;;;;4974797;28;20074;-85
2022/03/20 06:20:16;;;;;;;23.60;13.97;;;1.90;99.90;;;;;;4975370;28;20060;-85
2022/03/20 06:22:44;;;;;;;27.43;15.43;;;1.90;99.90;;;;;;4990205;28;20038;-84
2022/03/20 06:25:15;;;;;;;26.23;14.00;;;2.00;99.90;;;;;;4991225;28;20100;-85
2022/03/20 06:27:46;;;;;;;29.30;14.63;;;2.10;99.90;;;;;;4988009;28;20039;-85
2022/03/20 06:30:13;;;;;;;21.67;13.30;;;2.20;99.90;;;;;;4971685;28;20050;-85
2022/03/20 06:32:40;;;;;;;24.17;14.10;;;2.30;99.90;;;;;;4973739;28;20057;-87
2022/03/20 06:35:06;;;;;;;24.77;13.68;;;2.60;99.90;;;;;;4975022;28;20404;-88
2022/03/20 06:37:37;;;;;;;21.58;13.27;;;3.00;99.90;;;;;;4989326;28;20069;-87
2022/03/20 06:40:03;;;;;;;21.20;13.13;;;3.30;99.90;;;;;;4971363;28;20047;-87
2022/03/20 06:42:30;;;;;;;23.02;13.93;;;3.70;99.90;;;;;;4969806;28;20041;-87
2022/03/20 06:44:59;;;;;;;25.98;13.02;;;3.90;99.90;;;;;;4988357;28;20039;-88
2022/03/20 06:47:26;;;;;;;21.95;13.15;;;4.20;99.90;;;;;;4987817;28;20477;-87
2022/03/20 06:49:53;;;;;;;22.23;14.15;;;4.40;99.90;;;;;;4989400;28;20477;-85
2022/03/20 06:52:22;;;;;;;20.95;13.48;;;5.40;99.90;;;;;;4971966;28;20393;-86
2022/03/20 06:54:49;;;;;;;20.35;12.77;;;4.80;99.90;;;;;;4987720;28;20519;-85
2022/03/20 06:57:18;;;;;;;21.25;13.60;;;5.20;99.90;;;;;;4974002;28;20038;-87
2022/03/20 06:59:45;;;;;;;19.92;13.55;;;5.20;99.90;;;;;;4975815;28;20045;-87
2022/03/20 07:02:11;;;;;;;21.88;13.70;;;5.40;99.90;;;;;;5011406;23;20057;-89
2022/03/20 07:04:37;;;;;;;20.40;13.35;;;6.30;99.90;;;;;;5002074;28;20372;-88
2022/03/20 07:07:03;;;;;;;22.08;13.70;;;6.90;99.90;;;;;;5020525;28;20041;-89
2022/03/20 07:09:29;;;;;;;19.55;13.40;;;6.30;99.90;;;;;;5018521;28;20038;-88
2022/03/20 07:11:55;;;;;;;21.98;14.32;;;6.40;99.90;;;;;;4982445;28;20480;-88
2022/03/20 07:14:20;;;;;;;22.75;14.43;;;6.60;99.90;;;;;;4998174;28;20489;-89
2022/03/20 07:16:46;;;;;;;19.10;13.65;;;6.50;99.90;;;;;;4998173;28;20037;-88
2022/03/20 07:19:12;;;;;;;20.10;13.18;;;6.60;99.90;;;;;;4985128;28;20038;-88
2022/03/20 07:21:40;;;;;;;20.27;13.18;;;6.90;99.90;;;;;;5000744;28;20035;-85
2022/03/20 07:24:06;;;;;;;21.30;14.02;;;6.90;99.90;;;;;;5033342;28;20033;-86
2022/03/20 07:29:31;;;;;;;20.00;13.60;;;7.10;99.90;;;;;;5015951;28;20063;-86
2022/03/20 07:31:58;;;;;;;21.92;13.20;;;6.50;99.90;;;;;;4999862;28;20042;-86
2022/03/20 07:34:24;;;;;;;23.85;13.90;;;5.80;99.90;;;;;;4998597;28;20083;-86
2022/03/20 07:36:50;;;;;;;21.75;13.68;;;6.40;99.90;;;;;;4995729;28;20126;-86
2022/03/20 07:39:16;;;;;;;21.77;13.93;;;6.50;99.90;;;;;;5016944;28;20179;-86
2022/03/20 07:41:42;;;;;;;23.08;14.45;;;6.80;99.90;;;;;;5015785;28;20466;-86
2022/03/20 07:44:08;;;;;;;24.10;13.93;;;7.80;99.90;;;;;;4999853;28;20120;-86
2022/03/20 07:46:36;;;;;;;21.42;14.05;;;7.40;99.90;;;;;;5000281;28;20042;-86
2022/03/20 07:49:02;;;;;;;20.23;14.07;;;7.90;99.90;;;;;;4994432;28;20068;-86
2022/03/20 07:51:30;;;;;;;19.67;13.60;;;8.40;99.90;;;;;;4997280;28;20041;-87
2022/03/20 07:53:57;;;;;;;20.30;13.35;;;8.70;99.90;;;;;;4967965;28;20037;-86
2022/03/20 07:56:23;;;;;;;21.27;13.10;;;9.10;99.50;;;;;;5014731;28;20503;-86
2022/03/20 07:58:54;;;;;;;19.67;13.27;;;9.30;99.20;;;;;;4999400;28;20037;-86
2022/03/20 08:01:20;;;;;;;22.52;14.05;;;9.50;98.30;;;;;;5018585;28;20038;-87
2022/03/20 08:03:46;;;;;;;23.13;14.93;;;9.70;97.80;;;;;;5013797;28;20049;-85
2022/03/20 08:06:15;;;;;;;19.10;12.80;;;10.00;97.00;;;;;;5010892;28;20046;-87
2022/03/20 08:08:42;;;;;;;20.67;13.82;;;10.40;97.20;;;;;;5006360;28;20439;-89
2022/03/20 08:11:09;;;;;;;21.75;14.25;;;10.60;95.00;;;;;;5014243;28;20073;-89
2022/03/20 08:13:36;;;;;;;18.10;13.77;;;10.40;94.70;;;;;;5000117;28;20088;-86
2022/03/20 08:16:02;;;;;;;20.67;13.85;;;10.50;95.50;;;;;;5013109;28;20080;-87
2022/03/20 08:18:28;;;;;;;22.52;15.25;;;10.60;95.50;;;;;;5016684;28;20510;-87
2022/03/20 08:20:54;;;;;;;19.92;14.82;;;10.30;93.30;;;;;;4998746;28;20357;-87
2022/03/20 08:23:21;;;;;;;21.50;15.57;;;10.20;95.30;;;;;;5029360;28;20089;-87
2022/03/20 08:25:48;;;;;;;20.80;14.82;;;10.30;94.40;;;;;;5015253;28;20037;-87
2022/03/20 08:28:15;;;;;;;20.20;14.38;;;10.70;92.90;;;;;;4993765;28;20060;-88
2022/03/20 08:30:40;;;;;;;22.10;15.07;;;10.80;92.60;;;;;;5031993;28;20129;-88
2022/03/20 08:33:06;;;;;;;20.50;14.88;;;10.80;93.30;;;;;;5031645;28;20551;-90
2022/03/20 08:35:32;;;;;;;21.98;15.20;;;11.10;93.00;;;;;;5030543;28;20492;-90
2022/03/20 08:37:59;;;;;;;21.00;14.77;;;10.60;92.10;;;;;;5014013;28;20053;-90
2022/03/20 08:40:25;;;;;;;21.33;15.52;;;10.50;92.90;;;;;;4996249;28;20038;-90
2022/03/20 08:42:53;;;;;;;24.08;15.23;;;10.60;92.50;;;;;;5011551;28;20039;-89
2022/03/20 08:45:23;;;;;;;23.13;15.63;;;10.70;91.40;;;;;;5009153;28;20037;-87
2022/03/20 08:47:49;;;;;;;21.05;15.43;;;10.90;91.70;;;;;;5008019;28;20463;-87
2022/03/20 08:50:17;;;;;;;22.10;15.43;;;11.40;91.90;;;;;;5029335;28;20068;-87
2022/03/20 08:52:48;;;;;;;22.10;15.55;;;12.00;90.00;;;;;;5034903;28;20484;-86
2022/03/20 08:55:18;;;;;;;23.88;16.52;;;11.50;89.00;;;;;;5009019;28;20041;-86
2022/03/20 08:57:48;;;;;;;23.00;15.52;;;12.50;89.60;;;;;;5013974;28;20383;-88
2022/03/20 09:00:18;;;;;;;22.77;15.60;;;11.80;86.90;;;;;;5005948;28;20042;-88
2022/03/20 09:02:45;;;;;;;21.48;15.55;;;12.20;88.70;;;;;;5030333;28;20058;-89
2022/03/20 09:05:12;;;;;;;21.52;15.55;;;12.10;87.20;;;;;;5011559;28;20044;-90
2022/03/20 09:07:39;;;;;;;19.63;15.10;;;11.80;85.30;;;;;;5027110;28;20044;-89
2022/03/20 09:10:06;;;;;;;22.15;15.05;;;11.70;84.80;;;;;;5047906;28;20037;-91
2022/03/20 09:12:32;;;;;;;21.55;15.70;;;12.40;86.90;;;;;;5031600;28;20449;-90
2022/03/20 09:15:06;;;;;;;22.77;16.02;;;13.20;86.80;;;;;;5015634;28;20566;-88
2022/03/20 09:20:17;;;;;;;22.73;15.82;;;13.50;82.50;;;;;;5030818;28;20407;-88
2022/03/20 09:22:43;;;;;;;20.65;15.27;;;13.90;81.00;;;;;;4998798;28;20056;-89
2022/03/20 09:25:09;;;;;;;19.33;15.82;;;14.20;81.20;;;;;;5015800;28;20044;-91
2022/03/20 09:27:36;;;;;;;20.98;15.52;;;14.80;79.90;;;;;;5032310;28;20387;-88
2022/03/20 09:30:04;;;;;;;20.77;15.18;;;15.00;79.40;;;;;;5032522;28;20496;-88
2022/03/20 09:32:30;;;;;;;21.85;15.70;;;15.10;76.10;;;;;;5012417;28;20506;-90
2022/03/20 09:34:58;;;;;;;21.00;15.13;;;15.20;73.80;;;;;;5021626;28;20029;-87
2022/03/20 09:37:23;;;;;;;23.77;16.75;;;15.30;74.10;;;;;;4995167;28;20041;-86
2022/03/20 09:39:49;;;;;;;22.05;16.05;;;14.60;71.70;;;;;;5030404;28;20055;-86
2022/03/20 09:42:18;;;;;;;21.77;16.73;;;14.60;73.10;;;;;;5012091;28;20033;-87
2022/03/20 09:44:45;;;;;;;19.08;15.43;;;14.70;71.00;;;;;;5028768;28;20069;-86
2022/03/20 09:47:17;;;;;;;23.58;16.75;;;14.30;70.90;;;;;;5009211;28;20037;-88
2022/03/20 09:49:45;;;;;;;19.92;14.95;;;14.80;71.70;;;;;;5031235;28;20420;-86
2022/03/20 09:52:11;;;;;;;21.67;16.60;;;14.70;70.50;;;;;;5031062;28;20045;-88
2022/03/20 09:54:37;;;;;;;21.40;16.05;;;14.00;71.60;;;;;;5029267;28;20073;-89
2022/03/20 09:57:05;;;;;;;25.52;16.33;;;14.60;69.70;;;;;;5028828;28;20095;-88
2022/03/20 09:59:32;;;;;;;22.23;16.55;;;14.50;69.60;;;;;;5013172;28;20041;-88
2022/03/20 10:02:02;;;;;;;23.17;16.83;;;14.30;70.60;;;;;;5013226;28;20210;-90
2022/03/20 10:04:28;;;;;;;20.92;16.25;;;14.30;69.70;;;;;;5014621;28;20395;-88
2022/03/20 10:07:01;;;;;;;25.92;17.73;;;15.10;70.50;;;;;;4998868;28;20445;-88
2022/03/20 10:09:27;;;;;;;23.40;17.52;;;14.80;66.80;;;;;;5013185;28;20045;-88
2022/03/20 10:11:55;;;;;;;24.63;17.17;;;14.20;67.60;;;;;;4978646;28;20044;-87
2022/03/20 10:14:23;;;;;;;23.40;17.13;;;14.00;68.00;;;;;;5011474;28;20045;-86
2022/03/20 10:17:08;;;;;;;23.85;16.65;;;13.80;68.40;;;;;;5009245;28;20052;-86
2022/03/20 10:19:35;;;;;;;23.02;16.70;;;14.00;69.60;;;;;;4994587;28;20120;-86
2022/03/20 10:22:09;;;;;;;23.95;16.73;;;14.90;69.30;;;;;;5012529;28;20041;-87
2022/03/20 10:24:39;;;;;;;24.42;17.38;;;15.20;66.60;;;;;;5005702;28;20431;-86
2022/03/20 10:27:08;;;;;;;22.75;17.33;;;15.00;65.90;;;;;;5012141;28;20060;-87
2022/03/20 10:29:35;;;;;;;23.80;17.35;;;15.20;67.30;;;;;;5008729;28;20084;-87
2022/03/20 10:32:10;;;;;;;21.98;17.08;;;15.60;65.30;;;;;;5011356;28;20415;-88
2022/03/20 10:34:57;;;;;;;21.40;16.92;;;16.10;64.40;;;;;;5022497;28;20033;-87
2022/03/20 10:37:43;;;;;;;20.83;17.08;;;16.20;66.90;;;;;;4997470;28;20185;-86
2022/03/20 10:40:10;;;;;;;24.10;18.27;;;16.80;63.70;;;;;;4997300;28;20029;-86
2022/03/20 10:42:36;;;;;;;26.23;17.85;;;15.80;60.80;;;;;;4990990;28;20496;-86
2022/03/20 10:45:06;;;;;;;21.23;16.35;;;15.40;64.90;;;;;;5010086;28;20100;-87
2022/03/20 10:47:32;;;;;;;23.20;16.88;;;15.60;63.50;;;;;;4996420;28;20038;-88
2022/03/20 10:50:10;;;;;;;24.55;18.20;;;16.60;64.20;;;;;;5013819;28;20048;-87
2022/03/20 10:52:36;;;;;;;23.20;17.85;;;17.20;61.70;;;;;;4992350;28;20044;-88
2022/03/20 10:55:13;;;;;;;22.20;18.42;;;16.90;60.60;;;;;;5009518;28;20445;-86
2022/03/20 10:57:39;;;;;;;22.88;17.25;;;17.10;61.30;;;;;;4992670;28;20038;-88
2022/03/20 11:00:11;;;;;;;25.98;18.58;;;17.50;61.50;;;;;;5014098;28;20041;-87
2022/03/20 11:02:39;;;;;;;22.10;17.42;;;17.30;60.60;;;;;;5001057;28;20065;-88
2022/03/20 11:05:06;;;;;;;22.52;17.63;;;17.30;60.80;;;;;;5009285;28;20044;-88
2022/03/20 11:07:32;;;;;;;24.92;18.02;;;17.70;59.80;;;;;;5015593;28;20041;-88
2022/03/20 11:10:00;;;;;;;22.25;18.13;;;17.90;58.70;;;;;;5010288;28;20102;-88
2022/03/20 11:12:33;;;;;;;21.08;17.30;;;17.90;58.60;;;;;;5023163;28;20050;-88
2022/03/20 11:15:06;;;;;;;23.65;18.98;;;18.60;59.00;;;;;;5026797;28;20104;-91
2022/03/20 11:17:44;;;;;;;23.15;18.55;;;18.80;57.90;;;;;;5019734;28;20113;-91
2022/03/20 11:20:17;;;;;;;22.52;18.08;;;18.30;56.50;;;;;;5027781;28;20038;-87
2022/03/20 11:22:53;;;;;;;24.77;18.95;;;17.70;57.70;;;;;;5019862;28;20360;-86
2022/03/20 11:25:24;;;;;;;27.02;18.58;;;18.10;56.50;;;;;;5024063;28;20038;-87
2022/03/20 11:28:01;;;;;;;22.77;18.48;;;18.40;57.70;;;;;;5006867;28;20037;-87
2022/03/20 11:30:32;;;;;;;26.25;19.23;;;18.50;56.00;;;;;;5011755;28;20475;-87
2022/03/20 11:33:02;;;;;;;26.25;20.02;;;18.80;55.50;;;;;;5026246;28;20158;-87
2022/03/20 11:35:38;;;;;;;28.30;20.48;;;18.50;54.10;;;;;;5006533;28;20033;-86
2022/03/20 11:38:22;;;;;;;27.48;19.58;;;18.00;54.60;;;;;;5027961;28;20331;-87
2022/03/20 11:41:13;;;;;;;25.25;19.73;;;17.50;55.50;;;;;;5028972;28;20079;-87
2022/03/20 11:44:02;;;;;;;27.13;19.15;;;17.60;56.40;;;;;;5012850;28;20041;-86
2022/03/20 11:46:30;;;;;;;26.85;19.25;;;18.00;56.40;;;;;;5047480;28;20136;-87
2022/03/20 11:49:17;;;;;;;26.25;18.85;;;18.10;55.40;;;;;;5049879;28;20053;-90
2022/03/20 11:52:10;;;;;;;24.20;19.60;;;18.10;56.80;;;;;;5021851;28;20037;-88
2022/03/20 11:54:42;;;;;;;28.25;19.30;;;17.90;55.40;;;;;;5031889;28;20536;-89
2022/03/20 11:57:29;;;;;;;26.95;20.08;;;17.80;57.30;;;;;;5030197;28;20072;-88
2022/03/20 12:00:12;;;;;;;26.33;19.42;;;18.30;56.00;;;;;;5016229;28;20052;-90
2022/03/20 12:02:41;;;;;;;31.33;19.38;;;17.90;54.70;;;;;;5013148;28;20108;-89
2022/03/20 12:05:27;;;;;;;26.55;19.25;;;17.20;54.10;;;;;;5030487;28;20064;-89
2022/03/20 12:08:11;;;;;;;27.30;19.53;;;17.50;56.20;;;;;;5029605;28;20385;-88
2022/03/20 12:10:48;;;;;;;28.85;20.45;;;17.20;55.00;;;;;;5034312;28;20091;-89
2022/03/20 12:13:33;;;;;;;25.20;19.23;;;16.50;54.50;;;;;;5023354;28;20073;-89
2022/03/20 12:15:58;;;;;;;23.95;19.38;;;16.50;55.40;;;;;;5013345;28;20038;-88
2022/03/20 12:18:24;;;;;;;26.40;19.92;;;16.00;56.20;;;;;;5032712;28;20041;-88
2022/03/20 12:21:01;;;;;;;24.63;19.73;;;16.00;57.40;;;;;;5000975;28;20427;-89
2022/03/20 12:23:40;;;;;;;27.02;20.02;;;16.30;56.90;;;;;;5016583;28;20029;-88
2022/03/20 12:26:30;;;;;;;28.42;20.55;;;16.30;55.90;;;;;;5014263;28;20495;-88
2022/03/20 12:29:26;;;;;;;27.35;20.10;;;16.20;57.00;;;;;;5030352;28;20053;-88
2022/03/20 12:32:12;;;;;;;27.15;19.58;;;16.00;57.40;;;;;;5019710;28;20049;-89
2022/03/20 12:34:45;;;;;;;;;;;16.00;56.20;;;;;;5016670;28;20072;-88
2022/03/20 12:37:30;;;;;;;31.67;20.05;;;16.40;57.40;;;;;;5014198;28;19965;-88
2022/03/20 12:40:02;;;;;;;27.25;19.52;;;16.20;55.50;;;;;;5030912;28;20091;-89
2022/03/20 12:42:30;;;;;;;26.45;19.88;;;16.00;56.70;;;;;;5022260;28;20048;-89
2022/03/20 12:44:56;;;;;;;29.23;20.73;;;15.70;58.00;;;;;;5013525;28;20037;-88
2022/03/20 12:47:24;;;;;;;27.80;19.95;;;15.20;57.50;;;;;;5031321;28;20124;-89
2022/03/20 12:50:00;;;;;;;27.67;19.63;;;14.40;57.50;;;;;;5013090;28;20396;-88
2022/03/20 12:52:28;;;;;;;27.27;20.67;;;14.20;59.80;;;;;;5044157;28;20434;-87
2022/03/20 12:54:56;;;;;;;29.25;20.48;;;13.90;59.90;;;;;;5027314;28;20077;-89
2022/03/20 12:57:42;;;;;;;28.50;20.67;;;13.50;60.20;;;;;;4997887;28;20076;-89
2022/03/20 13:00:20;;;;;;;26.27;20.17;;;13.10;61.30;;;;;;5030024;28;20101;-89
2022/03/20 13:03:01;;;;;;;35.22;20.60;;;12.70;62.80;;;;;;5046921;28;20049;-89
2022/03/20 13:05:30;;;;;;;30.02;20.33;;;12.50;63.60;;;;;;5029949;28;20111;-89
2022/03/20 13:07:56;;;;;;;29.92;20.85;;;12.60;63.50;;;;;;5030692;28;20045;-88
2022/03/20 13:10:25;;;;;;;28.80;20.73;;;13.00;63.00;;;;;;5016940;28;20484;-90
2022/03/20 13:13:01;;;;;;;32.17;21.30;;;13.00;62.90;;;;;;5013426;28;20037;-87